createdAt,value
2019-02-21T00:00:24.173Z,39.40
2019-02-21T00:05:20.130Z,39.30
2019-02-21T00:10:21.488Z,39.50
2019-02-21T00:15:22.852Z,39.20
2019-02-21T00:20:24.190Z,39.30
2019-02-21T00:25:25.574Z,39.40
2019-02-21T00:30:34.925Z,39.30
2019-02-21T00:35:30.155Z,39.40
2019-02-21T00:40:31.479Z,39.30
2019-02-21T00:45:33.912Z,39.40
2019-02-21T00:50:35.340Z,39.40
2019-02-21T00:55:36.730Z,40.00
2019-02-21T01:00:46.101Z,39.50
2019-02-21T01:05:41.407Z,39.40
2019-02-21T01:10:42.715Z,39.40
2019-02-21T01:15:44.358Z,39.30
2019-02-21T01:20:45.775Z,39.40
2019-02-21T01:25:47.275Z,39.30
2019-02-21T01:30:56.755Z,39.50
2019-02-21T01:35:51.947Z,39.50
2019-02-21T01:40:53.309Z,39.50
2019-02-21T01:45:54.799Z,39.50
2019-02-21T01:50:56.234Z,39.50
2019-02-21T01:55:57.579Z,39.50
2019-02-21T02:01:07.914Z,39.70
2019-02-21T02:06:02.640Z,39.40
2019-02-21T02:11:03.988Z,39.40
2019-02-21T02:16:05.392Z,39.40
2019-02-21T02:21:06.911Z,39.60
2019-02-21T02:26:08.339Z,39.40
2019-02-21T02:31:21.932Z,39.40
2019-02-21T02:36:13.338Z,39.40
2019-02-21T02:41:14.887Z,39.50
2019-02-21T02:46:16.257Z,39.60
2019-02-21T02:51:17.629Z,39.50
2019-02-21T02:56:18.965Z,39.50
2019-02-21T03:01:20.391Z,39.50
2019-02-21T03:06:21.790Z,39.50
2019-02-21T03:11:23.187Z,39.40
2019-02-21T03:16:24.515Z,39.50
2019-02-21T03:21:25.907Z,39.50
2019-02-21T03:26:27.247Z,39.50
2019-02-21T03:31:28.645Z,39.40
2019-02-21T03:36:29.979Z,39.40
2019-02-21T03:41:31.471Z,39.50
2019-02-21T03:46:32.808Z,39.50
2019-02-21T03:51:34.234Z,39.60
2019-02-21T03:56:35.648Z,39.60
2019-02-21T04:01:37.025Z,39.30
2019-02-21T04:06:38.464Z,39.50
2019-02-21T04:11:39.819Z,39.50
2019-02-21T04:16:41.196Z,39.50
2019-02-21T04:21:42.586Z,39.50
2019-02-21T04:26:43.922Z,39.50
2019-02-21T04:31:45.322Z,39.50
2019-02-21T04:36:46.647Z,39.40
2019-02-21T04:41:48.043Z,39.50
2019-02-21T04:46:49.405Z,39.50
2019-02-21T04:51:50.772Z,39.50
2019-02-21T04:56:52.210Z,39.40
2019-02-21T05:01:53.598Z,39.50
2019-02-21T05:06:54.934Z,39.50
2019-02-21T05:11:56.351Z,39.50
2019-02-21T05:17:00.524Z,39.50
2019-02-21T05:22:01.102Z,39.40
2019-02-21T05:27:06.960Z,39.80
2019-02-21T05:32:25.311Z,39.50
2019-02-21T05:37:31.278Z,39.40
2019-02-21T05:42:46.568Z,39.50
2019-02-21T05:47:52.406Z,39.40
2019-02-21T05:53:13.526Z,39.50
2019-02-21T05:58:25.428Z,39.50
2019-02-21T06:03:37.602Z,39.40
2019-02-21T06:08:58.863Z,39.40
2019-02-21T06:14:02.225Z,39.40
2019-02-21T06:19:05.529Z,39.50
2019-02-21T06:24:11.378Z,39.50
2019-02-21T06:29:14.708Z,39.60
2019-02-21T06:34:16.096Z,39.60
2019-02-21T06:39:17.587Z,39.50
2019-02-21T06:44:18.909Z,39.50
2019-02-21T06:49:20.410Z,39.70
2019-02-21T06:54:22.547Z,39.50
2019-02-21T06:59:25.102Z,39.50
2019-02-21T07:04:26.422Z,39.50
2019-02-21T07:09:27.826Z,39.70
2019-02-21T07:14:29.260Z,39.50
2019-02-21T07:19:30.595Z,39.60
2019-02-21T07:24:32.616Z,39.60
2019-02-21T07:29:33.966Z,39.60
2019-02-21T07:34:35.388Z,39.70
2019-02-21T07:39:36.797Z,39.70
2019-02-21T07:44:38.194Z,39.70
2019-02-21T07:49:39.514Z,39.70
2019-02-21T07:54:40.902Z,39.90
2019-02-21T07:59:42.239Z,39.80
2019-02-21T08:04:43.635Z,39.80
2019-02-21T08:09:44.983Z,39.90
2019-02-21T08:14:46.410Z,39.90
2019-02-21T08:19:47.819Z,39.90
2019-02-21T08:24:49.205Z,40.00
2019-02-21T08:29:50.531Z,40.20
2019-02-21T08:34:52.452Z,40.10
2019-02-21T08:39:53.870Z,40.20
2019-02-21T08:44:55.270Z,40.10
2019-02-21T08:49:56.603Z,40.10
2019-02-21T08:55:00.512Z,40.20
2019-02-21T09:00:03.290Z,40.10
2019-02-21T09:05:09.429Z,40.30
2019-02-21T09:10:11.788Z,40.30
2019-02-21T09:15:15.493Z,40.40
2019-02-21T09:20:16.971Z,40.10
2019-02-21T09:25:18.369Z,40.20
2019-02-21T09:30:19.735Z,40.10
2019-02-21T09:35:21.096Z,40.10
2019-02-21T09:40:22.453Z,40.20
2019-02-21T09:45:23.888Z,40.60
2019-02-21T09:50:25.325Z,40.40
2019-02-21T09:55:29.716Z,40.70
2019-02-21T10:00:31.088Z,40.10
2019-02-21T10:05:32.415Z,40.10
2019-02-21T10:10:33.808Z,40.00
2019-02-21T10:15:35.188Z,39.80
2019-02-21T10:20:36.622Z,39.90
2019-02-21T10:25:37.998Z,39.90
2019-02-21T10:30:39.405Z,39.90
2019-02-21T10:35:40.809Z,39.80
2019-02-21T10:40:42.288Z,40.00
2019-02-21T10:45:47.902Z,39.60
2019-02-21T10:50:46.987Z,39.90
2019-02-21T10:55:48.413Z,40.00
2019-02-21T11:00:49.906Z,39.90
2019-02-21T11:05:51.243Z,40.00
2019-02-21T11:10:53.663Z,40.10
2019-02-21T11:15:55.002Z,39.90
2019-02-21T11:20:56.395Z,40.00
2019-02-21T11:25:57.727Z,39.90
2019-02-21T11:30:59.246Z,39.70
2019-02-21T11:36:00.658Z,39.70
2019-02-21T11:41:02.059Z,39.50
2019-02-21T11:46:04.894Z,39.70
2019-02-21T11:51:07.497Z,39.50
2019-02-21T11:56:09.309Z,39.50
2019-02-21T12:01:10.786Z,39.50
2019-02-21T12:06:12.123Z,39.50
2019-02-21T12:11:13.512Z,39.30
2019-02-21T12:16:14.847Z,39.50
2019-02-21T12:21:16.368Z,39.50
2019-02-21T12:26:17.708Z,39.30
2019-02-21T12:31:19.073Z,39.30
2019-02-21T12:36:20.407Z,39.30
2019-02-21T12:41:21.795Z,39.30
2019-02-21T12:46:23.137Z,39.30
2019-02-21T12:51:24.526Z,39.40
2019-02-21T12:56:25.862Z,39.30
2019-02-21T13:01:27.396Z,39.20
2019-02-21T13:06:28.902Z,39.20
2019-02-21T13:11:30.292Z,39.20
2019-02-21T13:16:31.628Z,39.10
2019-02-21T13:21:33.047Z,39.10
2019-02-21T13:26:34.457Z,39.10
2019-02-21T13:31:35.859Z,39.10
2019-02-21T13:36:37.185Z,39.30
2019-02-21T13:41:38.578Z,39.10
2019-02-21T13:46:41.309Z,39.20
2019-02-21T13:51:43.264Z,39.40
2019-02-21T13:56:44.642Z,39.10
2019-02-21T14:01:46.170Z,39.10
2019-02-21T14:06:47.566Z,39.10
2019-02-21T14:11:48.986Z,39.30
2019-02-21T14:16:50.413Z,39.30
2019-02-21T14:21:51.818Z,39.30
2019-02-21T14:26:53.211Z,39.30
2019-02-21T14:31:54.543Z,39.40
2019-02-21T14:36:55.935Z,39.40
2019-02-21T14:41:57.271Z,39.40
2019-02-21T14:46:58.665Z,39.40
2019-02-21T14:52:01.913Z,39.40
2019-02-21T14:57:03.523Z,39.30
2019-02-21T15:02:06.187Z,39.20
2019-02-21T15:07:07.606Z,39.40
2019-02-21T15:12:11.613Z,39.50
2019-02-21T15:17:12.303Z,39.60
2019-02-21T15:22:14.087Z,39.60
2019-02-21T15:27:15.516Z,39.50
2019-02-21T15:32:16.855Z,40.20
2019-02-21T15:37:20.388Z,39.60
2019-02-21T15:42:21.756Z,39.60
2019-02-21T15:47:24.175Z,39.60
2019-02-21T15:52:25.514Z,39.70
2019-02-21T15:57:26.943Z,39.70
2019-02-21T16:02:29.290Z,39.70
2019-02-21T16:07:30.900Z,39.70
2019-02-21T16:12:32.505Z,39.70
2019-02-21T16:17:37.194Z,39.80
2019-02-21T16:22:37.572Z,39.60
2019-02-21T16:27:38.939Z,39.90
2019-02-21T16:32:40.334Z,39.70
2019-02-21T16:37:41.891Z,39.70
2019-02-21T16:42:43.324Z,39.70
2019-02-21T16:47:44.711Z,39.80
2019-02-21T16:52:46.046Z,39.70
2019-02-21T16:57:47.457Z,39.70
2019-02-21T17:02:49.104Z,39.60
2019-02-21T17:07:50.451Z,39.70
2019-02-21T17:12:55.140Z,39.70
2019-02-21T17:17:56.901Z,39.70
2019-02-21T17:22:58.324Z,39.80
2019-02-21T17:27:59.727Z,40.00
2019-02-21T17:33:01.060Z,40.00
2019-02-21T17:38:02.538Z,40.00
2019-02-21T17:43:04.019Z,40.10
2019-02-21T17:48:05.355Z,40.60
2019-02-21T17:53:06.743Z,40.00
2019-02-21T17:58:08.075Z,40.10
2019-02-21T18:03:09.474Z,40.10
2019-02-21T18:08:10.911Z,40.20
2019-02-21T18:13:12.298Z,40.10
2019-02-21T18:18:13.771Z,40.10
2019-02-21T18:23:15.134Z,40.20
2019-02-21T18:28:17.532Z,40.10
2019-02-21T18:33:18.955Z,40.20
2019-02-21T18:38:20.353Z,40.10
2019-02-21T18:43:21.787Z,40.10
2019-02-21T18:48:23.233Z,40.10
2019-02-21T18:53:25.674Z,40.20
2019-02-21T18:58:27.126Z,40.10
2019-02-21T19:03:30.872Z,40.20
2019-02-21T19:08:33.337Z,40.20
2019-02-21T19:13:34.896Z,40.80
2019-02-21T19:18:36.746Z,40.30
2019-02-21T19:23:38.520Z,40.20
2019-02-21T19:28:39.978Z,40.20
2019-02-21T19:33:41.503Z,40.30
2019-02-21T19:38:42.838Z,40.50
2019-02-21T19:43:44.228Z,40.30
2019-02-21T19:48:47.502Z,40.50
2019-02-21T19:53:50.069Z,40.30
2019-02-21T19:58:52.129Z,40.40
2019-02-21T20:03:53.594Z,40.20
2019-02-21T20:08:55.658Z,40.40
2019-02-21T20:13:57.110Z,40.50
2019-02-21T20:18:58.554Z,40.60
2019-02-21T20:24:00.033Z,40.80
2019-02-21T20:29:02.609Z,40.60
2019-02-21T20:34:04.473Z,40.50
2019-02-21T20:39:06.471Z,40.60
2019-02-21T20:44:07.977Z,40.60
2019-02-21T20:49:09.499Z,40.70
2019-02-21T20:54:12.891Z,40.70
2019-02-21T20:59:14.232Z,40.70
2019-02-21T21:04:15.643Z,40.80
2019-02-21T21:09:17.041Z,40.90
2019-02-21T21:14:18.471Z,41.10
2019-02-21T21:19:19.862Z,41.60
2019-02-21T21:24:21.205Z,41.60
2019-02-21T21:29:22.595Z,42.50
2019-02-21T21:34:23.930Z,42.10
2019-02-21T21:39:25.346Z,42.20
2019-02-21T21:44:26.853Z,42.20
2019-02-21T21:49:28.243Z,41.80
2019-02-21T21:54:29.642Z,41.70
2019-02-21T21:59:31.056Z,41.60
2019-02-21T22:04:32.488Z,41.60
2019-02-21T22:09:33.886Z,41.40
2019-02-21T22:14:35.282Z,41.40
2019-02-21T22:19:36.721Z,41.30
2019-02-21T22:24:38.102Z,41.40
2019-02-21T22:29:39.442Z,41.20
2019-02-21T22:34:43.018Z,41.10
2019-02-21T22:39:46.610Z,41.10
2019-02-21T22:44:48.715Z,41.10
2019-02-21T22:49:52.538Z,41.00
2019-02-21T22:54:54.602Z,41.00
2019-02-21T22:59:56.319Z,41.00
2019-02-21T23:05:15.725Z,41.00
2019-02-21T23:10:17.079Z,41.00
2019-02-21T23:15:18.473Z,41.60
2019-02-21T23:20:19.918Z,41.00
2019-02-21T23:25:21.306Z,41.00
2019-02-21T23:30:22.638Z,41.00
2019-02-21T23:35:24.135Z,40.90
2019-02-21T23:40:25.480Z,40.90
2019-02-21T23:45:26.867Z,40.90
2019-02-21T23:50:28.199Z,41.00
2019-02-21T23:55:29.665Z,41.00
